• Join FlightAware (Why Join?)
  • Login
  • US Flag 
11:30AM EDT


 

Airport Tracker/Info


-or-


 

Live Flight TrackerFlight Track Log ✈ CTN676 ✈ 01-May-2012 ✈ LDZA / ZAG - LDZD / ZAD

Flight Track Log - Related Links

Times and Time Zones

All times are in EDT time to prevent confusion due to time zone crossing. See the CTN676 flight status page for this flight to view local times or setup timezone preferences in your user account.

Time Position Orientation Groundspeed Altitude Reporting Facility
EDT Latitude Longitude Course Direction KTS MPH feet Rate Location/Type
04:53AM 45.5919 16.0002 198° South  Level Estimated
04:54AM 45.5455 15.9792 198° South  Level Estimated
04:55AM 45.4990 15.9583 198° South  Level Estimated
04:56AM 45.4525 15.9373 198° South  Level Estimated
04:57AM 45.4060 15.9164 198° South  Level Estimated
04:58AM 45.3595 15.8955 197° South  Level Estimated
04:59AM 45.3130 15.8747 197° South  Level Estimated
05:00AM 45.2666 15.8539 197° South  Level Estimated
05:01AM 45.2201 15.8331 197° South  Level Estimated
05:02AM 45.1736 15.8124 197° South  Level Estimated
05:03AM 45.1271 15.7916 197° South  Level Estimated
05:04AM 45.0806 15.7710 197° South  Level Estimated
05:05AM 45.0340 15.7503 197° South  Level Estimated
05:06AM 44.9875 15.7297 197° South  Level Estimated
05:07AM 44.9410 15.7092 197° South  Level Estimated
05:08AM 44.8945 15.6886 197° South  Level Estimated
05:09AM 44.8480 15.6681 197° South  Level Estimated
05:10AM 44.8014 15.6476 197° South  Level Estimated
05:11AM 44.7549 15.6272 197° South  Level Estimated
05:12AM 44.7084 15.6068 197° South  Level Estimated
05:13AM 44.6618 15.5864 197° South  Level Estimated
05:14AM 44.6153 15.5661 197° South  Level Estimated
05:15AM 44.5687 15.5458 197° South  Level Estimated
05:16AM 44.5222 15.5255 197° South  Level Estimated
05:17AM 44.4756 15.5052 197° South  Level Estimated
05:18AM 44.4291 15.4850 197° South  Level Estimated
05:19AM 44.3825 15.4649 197° South  Level Estimated
05:20AM 44.3359 15.4447 197° South  Level Estimated
05:21AM 44.2894 15.4246 197° South  Level Estimated
05:22AM 44.2428 15.4045 197° South  Level Estimated
05:23AM 44.1962 15.3845 197° South  Level Estimated
05:24AM 44.1496 15.3645 197° South  Level Estimated